Time;durP1;ratioP1;P1;durP2;ratioP2;P2;SDS_P1;SDS_P2;PMS_P1;PMS_P2;Temp;Humidity;BMP_temperature;BMP_pressure;BME280_temperature;BME280_humidity;BME280_pressure;Samples;Min_cycle;Max_cycle;Signal;HPM_P1;HPM_P2
2023/09/19 00:14:00;;;;;;;3.35;2.00;;;;;;;19.82;66.13;99423.97;31342009;27;97641;-67
2023/09/19 00:29:08;;;;;;;5.40;1.53;;;;;;;19.59;67.31;99439.28;31340781;27;97447;-65
2023/09/19 00:44:09;;;;;;;4.77;1.67;;;;;;;19.50;67.72;99419.16;31339731;27;97686;-66
2023/09/19 00:59:09;;;;;;;2.53;1.40;;;;;;;19.45;68.20;99413.66;31338362;27;97247;-66
2023/09/19 01:14:25;;;;;;;2.80;1.15;;;;;;;19.48;68.61;99407.78;31337024;27;97416;-67
2023/09/19 01:29:39;;;;;;;6.63;1.80;;;;;;;19.42;68.62;99408.75;31335431;27;96673;-65
2023/09/19 01:45:07;;;;;;;5.13;1.50;;;;;;;19.09;69.40;99413.94;31334787;27;96685;-67
2023/09/19 02:00:11;;;;;;;5.60;2.73;;;;;;;18.94;70.31;99406.44;31350097;27;97913;-68
2023/09/19 02:15:12;;;;;;;3.80;1.40;;;;;;;18.93;71.53;99412.88;31355748;27;96847;-71
2023/09/19 02:30:14;;;;;;;2.93;1.10;;;;;;;18.87;72.07;99421.91;31353275;27;97295;-69
2023/09/19 02:45:17;;;;;;;2.43;1.20;;;;;;;18.37;72.87;99406.44;31350866;27;96786;-68
2023/09/19 03:00:21;;;;;;;4.50;1.60;;;;;;;18.36;73.90;99385.97;31349554;27;97469;-67
2023/09/19 03:15:22;;;;;;;4.93;1.90;;;;;;;18.31;74.36;99396.63;31346226;27;97185;-67
2023/09/19 03:30:22;;;;;;;7.15;2.03;;;;;;;18.04;74.82;99391.78;31344585;27;103406;-66
2023/09/19 03:45:22;;;;;;;3.88;1.95;;;;;;;17.81;75.66;99409.63;31345889;27;97356;-65
2023/09/19 04:00:26;;;;;;;5.20;2.35;;;;;;;17.77;76.28;99403.91;31342655;27;97381;-70
2023/09/19 04:15:27;;;;;;;5.07;2.20;;;;;;;17.75;76.79;99395.22;31338366;27;97307;-65
2023/09/19 04:30:28;;;;;;;5.33;3.00;;;;;;;17.63;77.35;99402.50;31337910;27;97549;-64
2023/09/19 04:45:29;;;;;;;6.40;2.42;;;;;;;17.50;77.78;99417.03;31335073;27;113179;-69
2023/09/19 05:00:30;;;;;;;3.67;2.30;;;;;;;17.47;78.44;99425.59;31335642;27;97121;-70
2023/09/19 05:15:31;;;;;;;4.57;2.27;;;;;;;17.64;79.04;99422.19;31342335;27;96989;-71
2023/09/19 05:30:32;;;;;;;6.20;2.50;;;;;;;17.58;78.55;99435.53;31864433;27;20937;-69
2023/09/19 05:45:32;;;;;;;5.23;2.30;;;;;;;17.60;78.82;99467.63;31869798;27;20043;-70
2023/09/19 06:00:33;;;;;;;8.13;4.18;;;;;;;17.96;79.12;99487.31;31868371;27;20028;-69
2023/09/19 06:15:36;;;;;;;5.35;2.58;;;;;;;-147.20;100.00;63046.97;31809398;27;97064;-70
2023/09/19 06:30:39;;;;;;;4.95;2.28;;;;;;;-147.20;100.00;63046.97;31910819;27;20044;-70
2023/09/19 06:45:40;;;;;;;4.55;2.45;;;;;;;-147.20;100.00;63046.97;31924049;27;20063;-70
2023/09/19 07:00:40;;;;;;;3.08;1.50;;;;;;;-147.20;100.00;63046.97;31929448;27;20123;-70
2023/09/19 07:15:46;;;;;;;4.00;1.53;;;;;;;-147.20;100.00;63046.97;31928121;27;20740;-70
2023/09/19 07:30:46;;;;;;;4.15;1.50;;;;;;;-147.20;100.00;63046.97;31942309;27;20717;-69
2023/09/19 07:45:47;;;;;;;2.37;1.50;;;;;;;-147.20;100.00;63046.97;31939549;27;20108;-69
2023/09/19 08:00:48;;;;;;;4.63;1.88;;;;;;;-147.20;100.00;63046.97;31922065;27;20254;-70
2023/09/19 08:15:48;;;;;;;3.47;1.20;;;;;;;-147.20;100.00;63046.97;31920564;27;20043;-70
2023/09/19 08:30:49;;;;;;;2.63;1.10;;;;;;;-147.20;100.00;63046.97;31917488;27;20135;-69
2023/09/19 08:45:49;;;;;;;5.55;1.55;;;;;;;-147.20;100.00;63046.97;31916285;27;20035;-68
2023/09/19 09:00:51;;;;;;;3.45;1.60;;;;;;;-147.20;100.00;63046.97;31915668;27;20042;-69
2023/09/19 09:15:52;;;;;;;3.75;1.55;;;;;;;-147.20;100.00;63046.97;31915176;27;20152;-70
2023/09/19 09:30:52;;;;;;;6.13;1.70;;;;;;;-147.20;100.00;63046.97;31913027;27;20501;-70
2023/09/19 10:01:26;;;;;;;2.33;1.33;;;;;;;-147.20;100.00;63046.97;31912620;27;19982;-71
2023/09/19 10:16:31;;;;;;;5.70;1.40;;;;;;;-147.20;100.00;63046.97;31917974;27;20093;-70
2023/09/19 10:31:35;;;;;;;3.45;1.52;;;;;;;-147.20;100.00;63046.97;31931488;27;20150;-68
2023/09/19 10:46:38;;;;;;;5.35;1.35;;;;;;;-147.20;100.00;63046.97;31930031;27;20507;-68
2023/09/19 11:01:42;;;;;;;2.43;0.90;;;;;;;-147.20;100.00;63046.97;31929788;27;20106;-67
2023/09/19 11:17:05;;;;;;;1.60;1.00;;;;;;;-147.20;100.00;63046.97;31927305;27;20276;-67
2023/09/19 11:32:05;;;;;;;3.47;0.97;;;;;;;-147.20;100.00;63046.97;31923332;27;20265;-68
2023/09/19 11:47:07;;;;;;;2.40;0.82;;;;;;;-147.20;100.00;63046.97;31924601;27;20726;-68
2023/09/19 12:02:10;;;;;;;2.63;0.90;;;;;;;-147.20;100.00;63046.97;31921973;27;20032;-68
2023/09/19 12:17:13;;;;;;;1.90;0.70;;;;;;;-147.20;100.00;63046.97;31921212;27;20028;-68
2023/09/19 12:32:16;;;;;;;3.03;1.00;;;;;;;-147.20;100.00;63046.97;31916508;27;20142;-69
2023/09/19 12:47:24;;;;;;;2.53;1.07;;;;;;;-147.20;100.00;63046.97;31930321;27;20034;-69
2023/09/19 13:02:25;;;;;;;;;;;;;;;-147.20;100.00;63046.97;31916985;27;20256;-68
2023/09/19 13:17:42;;;;;;;0.83;0.77;;;;;;;-147.20;100.00;63046.97;31918010;27;19915;-68
2023/09/19 13:32:43;;;;;;;2.73;0.77;;;;;;;-147.20;100.00;63046.97;31914381;27;20044;-69
2023/09/19 13:47:44;;;;;;;1.70;0.98;;;;;;;-147.20;100.00;63046.97;31919370;27;20281;-68
2023/09/19 14:02:48;;;;;;;1.23;0.80;;;;;;;-147.20;100.00;63046.97;31936495;27;20027;-68
2023/09/19 14:17:49;;;;;;;5.22;1.10;;;;;;;-147.20;100.00;63046.97;31935495;27;20388;-68
2023/09/19 14:32:49;;;;;;;2.70;0.90;;;;;;;-147.20;100.00;63046.97;31933369;27;20047;-68
2023/09/19 14:47:54;;;;;;;1.60;0.70;;;;;;;-147.20;100.00;63046.97;31931347;27;20433;-69
2023/09/19 15:02:55;;;;;;;3.45;1.25;;;;;;;-147.20;100.00;63046.97;31928687;27;20051;-68
2023/09/19 15:17:56;;;;;;;3.08;1.60;;;;;;;-147.20;100.00;63046.97;31928849;27;20444;-69
2023/09/19 15:32:56;;;;;;;2.33;1.35;;;;;;;-147.20;100.00;63046.97;31925178;27;20130;-69
2023/09/19 15:47:56;;;;;;;3.28;1.05;;;;;;;-147.20;100.00;63046.97;31925134;27;20054;-68
2023/09/19 16:02:57;;;;;;;;;;;;;;;-147.20;100.00;63046.97;31936906;27;20026;-69
2023/09/19 16:18:00;;;;;;;2.05;1.10;;;;;;;-147.20;100.00;63046.97;31918906;27;19971;-68
2023/09/19 16:33:00;;;;;;;2.55;1.00;;;;;;;-147.20;100.00;63046.97;31918945;27;20396;-69
2023/09/19 16:48:00;;;;;;;3.50;0.97;;;;;;;-147.20;100.00;63046.97;31917982;27;20031;-68
2023/09/19 17:03:02;;;;;;;2.13;1.10;;;;;;;-147.20;100.00;63046.97;31917213;27;20064;-69
2023/09/19 17:18:03;;;;;;;3.90;1.10;;;;;;;-147.20;100.00;63046.97;31916661;27;20377;-69
2023/09/19 17:33:04;;;;;;;5.83;2.13;;;;;;;-147.20;100.00;63046.97;31915396;27;20059;-69
2023/09/19 17:48:06;;;;;;;6.85;2.28;;;;;;;-147.20;100.00;63046.97;31802078;27;20087;-69
2023/09/19 18:03:06;;;;;;;10.80;4.40;;;;;;;-147.20;100.00;63046.97;31783628;27;20062;-68
2023/09/19 18:18:07;;;;;;;7.60;3.72;;;;;;;-147.20;100.00;63046.97;31781831;28;20426;-68
2023/09/19 18:33:07;;;;;;;5.88;2.80;;;;;;;-147.20;100.00;63046.97;31782791;27;20404;-70
2023/09/19 18:48:07;;;;;;;7.65;2.92;;;;;;;-147.20;100.00;63046.97;31803434;27;20040;-68
2023/09/19 19:03:08;;;;;;;31.45;13.20;;;;;;;-147.20;100.00;63046.97;31803011;27;20909;-68
2023/09/19 19:18:08;;;;;;;13.98;5.35;;;;;;;-147.20;100.00;63046.97;31800675;27;20025;-68
2023/09/19 19:33:09;;;;;;;8.88;3.80;;;;;;;-147.20;100.00;63046.97;31799108;27;20177;-68
2023/09/19 19:48:10;;;;;;;8.43;3.63;;;;;;;-147.20;100.00;63046.97;31799498;27;20036;-68
2023/09/19 20:03:13;;;;;;;6.15;3.03;;;;;;;-147.20;100.00;63046.97;31796900;27;20499;-67
2023/09/19 20:18:13;;;;;;;10.95;2.85;;;;;;;-147.20;100.00;63046.97;31794631;27;20090;-69
2023/09/19 20:33:14;;;;;;;5.28;2.40;;;;;;;-147.20;100.00;63046.97;31792364;27;20040;-71
2023/09/19 20:48:16;;;;;;;7.13;2.45;;;;;;;-147.20;100.00;63046.97;31807664;27;20127;-69
2023/09/19 21:03:16;;;;;;;4.03;2.27;;;;;;;-147.20;100.00;63046.97;31791145;27;20032;-71
2023/09/19 21:18:16;;;;;;;3.85;2.70;;;;;;;-147.20;100.00;63046.97;31791945;27;20529;-71
2023/09/19 21:33:17;;;;;;;6.97;3.17;;;;;;;-147.20;100.00;63046.97;31790881;28;20052;-69
2023/09/19 21:48:18;;;;;;;8.15;3.38;;;;;;;-147.20;100.00;63046.97;31789135;27;20024;-70
2023/09/19 22:03:18;;;;;;;5.30;3.28;;;;;;;-147.20;100.00;63046.97;31785342;27;20032;-65
2023/09/19 22:18:20;;;;;;;5.22;3.22;;;;;;;-147.20;100.00;63046.97;31796903;27;20759;-71
2023/09/19 22:33:21;;;;;;;5.00;2.55;;;;;;;-147.20;100.00;63046.97;31802221;28;20052;-69
2023/09/19 22:48:25;;;;;;;7.90;2.67;;;;;;;14.61;66.82;99933.41;31419179;27;97332;-65
2023/09/19 23:03:28;;;;;;;4.03;2.40;;;;;;;14.64;66.50;99937.53;31223533;27;96720;-67
2023/09/19 23:18:29;;;;;;;;;;;;;;;14.51;66.17;99944.50;31222664;27;97066;-68
2023/09/19 23:33:30;;;;;;;3.83;2.40;;;;;;;14.25;66.11;99952.47;31221663;28;97466;-67
2023/09/19 23:48:35;;;;;;;4.03;2.37;;;;;;;14.00;66.11;99955.66;31219844;28;97750;-67
